sensor_id;sensor_type;location;lat;lon;timestamp;temperature;humidity
81366;DHT22;70822;51.990;22.766;2023-10-13T00:12:20;12.00;70.20
81366;DHT22;70822;51.990;22.766;2023-10-13T00:27:27;11.80;70.20
81366;DHT22;70822;51.990;22.766;2023-10-13T00:42:33;12.00;69.70
81366;DHT22;70822;51.990;22.766;2023-10-13T00:57:54;11.50;70.00
81366;DHT22;70822;51.990;22.766;2023-10-13T01:13:19;11.00;70.10
81366;DHT22;70822;51.990;22.766;2023-10-13T01:28:27;10.60;70.40
81366;DHT22;70822;51.990;22.766;2023-10-13T01:43:34;10.30;70.20
81366;DHT22;70822;51.990;22.766;2023-10-13T01:58:45;9.60;71.30
81366;DHT22;70822;51.990;22.766;2023-10-13T02:13:52;9.40;72.70
81366;DHT22;70822;51.990;22.766;2023-10-13T02:29:00;9.50;72.00
81366;DHT22;70822;51.990;22.766;2023-10-13T03:17:03;8.60;73.30
81366;DHT22;70822;51.990;22.766;2023-10-13T03:32:14;8.60;72.30
81366;DHT22;70822;51.990;22.766;2023-10-13T03:47:24;8.60;72.00
81366;DHT22;70822;51.990;22.766;2023-10-13T04:02:31;8.30;72.10
81366;DHT22;70822;51.990;22.766;2023-10-13T04:17:36;8.10;71.80
81366;DHT22;70822;51.990;22.766;2023-10-13T04:32:50;8.00;71.60
81366;DHT22;70822;51.990;22.766;2023-10-13T04:48:10;7.80;71.50
81366;DHT22;70822;51.990;22.766;2023-10-13T05:03:26;7.60;71.60
81366;DHT22;70822;51.990;22.766;2023-10-13T05:35:41;7.30;72.50
81366;DHT22;70822;51.990;22.766;2023-10-13T05:51:08;7.40;72.90
81366;DHT22;70822;51.990;22.766;2023-10-13T06:06:32;7.80;73.10
81366;DHT22;70822;51.990;22.766;2023-10-13T06:39:11;7.90;76.50
81366;DHT22;70822;51.990;22.766;2023-10-13T06:54:34;8.90;77.40
81366;DHT22;70822;51.990;22.766;2023-10-13T07:09:41;10.40;77.80
81366;DHT22;70822;51.990;22.766;2023-10-13T07:24:54;11.90;76.90
81366;DHT22;70822;51.990;22.766;2023-10-13T07:40:04;12.20;76.20
81366;DHT22;70822;51.990;22.766;2023-10-13T07:55:26;12.10;76.20
81366;DHT22;70822;51.990;22.766;2023-10-13T08:10:37;12.70;76.80
81366;DHT22;70822;51.990;22.766;2023-10-13T08:25:41;13.60;75.10
81366;DHT22;70822;51.990;22.766;2023-10-13T08:41:05;13.80;74.90
81366;DHT22;70822;51.990;22.766;2023-10-13T08:56:28;13.90;74.60
81366;DHT22;70822;51.990;22.766;2023-10-13T09:11:39;14.30;74.10
81366;DHT22;70822;51.990;22.766;2023-10-13T09:42:59;14.00;73.70
81366;DHT22;70822;51.990;22.766;2023-10-13T09:58:11;14.00;73.80
81366;DHT22;70822;51.990;22.766;2023-10-13T10:13:34;14.20;73.40
81366;DHT22;70822;51.990;22.766;2023-10-13T10:28:40;14.50;73.00
81366;DHT22;70822;51.990;22.766;2023-10-13T10:43:48;14.70;73.30
81366;DHT22;70822;51.990;22.766;2023-10-13T10:58:56;14.80;73.30
81366;DHT22;70822;51.990;22.766;2023-10-13T11:14:00;14.70;73.80
81366;DHT22;70822;51.990;22.766;2023-10-13T11:29:32;14.90;74.30
81366;DHT22;70822;51.990;22.766;2023-10-13T11:44:44;15.10;75.20
81366;DHT22;70822;51.990;22.766;2023-10-13T11:59:49;15.50;75.60
81366;DHT22;70822;51.990;22.766;2023-10-13T12:15:01;16.00;75.80
81366;DHT22;70822;51.990;22.766;2023-10-13T12:30:14;16.30;75.70
81366;DHT22;70822;51.990;22.766;2023-10-13T12:45:22;16.60;75.60
81366;DHT22;70822;51.990;22.766;2023-10-13T13:00:46;16.90;76.00
81366;DHT22;70822;51.990;22.766;2023-10-13T13:15:53;17.40;76.00
81366;DHT22;70822;51.990;22.766;2023-10-13T13:30:58;17.80;75.80
81366;DHT22;70822;51.990;22.766;2023-10-13T13:46:03;18.00;75.50
81366;DHT22;70822;51.990;22.766;2023-10-13T14:01:08;18.30;75.50
81366;DHT22;70822;51.990;22.766;2023-10-13T14:16:19;18.40;75.60
81366;DHT22;70822;51.990;22.766;2023-10-13T14:31:25;18.40;75.60
81366;DHT22;70822;51.990;22.766;2023-10-13T14:46:30;18.20;76.00
81366;DHT22;70822;51.990;22.766;2023-10-13T15:01:34;18.10;76.10
81366;DHT22;70822;51.990;22.766;2023-10-13T15:16:39;18.00;76.30
81366;DHT22;70822;51.990;22.766;2023-10-13T15:31:46;17.90;76.30
81366;DHT22;70822;51.990;22.766;2023-10-13T15:47:03;17.90;76.10
81366;DHT22;70822;51.990;22.766;2023-10-13T16:02:27;17.80;76.30
81366;DHT22;70822;51.990;22.766;2023-10-13T16:17:32;17.70;76.10
81366;DHT22;70822;51.990;22.766;2023-10-13T16:32:37;17.60;76.20
81366;DHT22;70822;51.990;22.766;2023-10-13T16:47:42;17.50;76.20
81366;DHT22;70822;51.990;22.766;2023-10-13T17:02:47;17.50;76.20
81366;DHT22;70822;51.990;22.766;2023-10-13T17:17:52;17.40;76.00
81366;DHT22;70822;51.990;22.766;2023-10-13T17:32:59;17.10;76.40
81366;DHT22;70822;51.990;22.766;2023-10-13T17:48:05;16.90;77.10
81366;DHT22;70822;51.990;22.766;2023-10-13T18:03:11;16.80;77.40
81366;DHT22;70822;51.990;22.766;2023-10-13T18:18:16;16.70;77.80
81366;DHT22;70822;51.990;22.766;2023-10-13T18:33:21;16.70;78.40
81366;DHT22;70822;51.990;22.766;2023-10-13T18:48:28;16.70;78.30
81366;DHT22;70822;51.990;22.766;2023-10-13T19:03:34;16.60;78.70
81366;DHT22;70822;51.990;22.766;2023-10-13T19:18:40;16.60;79.20
81366;DHT22;70822;51.990;22.766;2023-10-13T19:33:46;16.70;79.50
81366;DHT22;70822;51.990;22.766;2023-10-13T19:48:53;16.60;79.50
81366;DHT22;70822;51.990;22.766;2023-10-13T20:03:58;16.70;79.40
81366;DHT22;70822;51.990;22.766;2023-10-13T20:19:03;16.60;79.50
81366;DHT22;70822;51.990;22.766;2023-10-13T20:34:08;16.60;79.60
81366;DHT22;70822;51.990;22.766;2023-10-13T20:49:17;16.40;79.60
81366;DHT22;70822;51.990;22.766;2023-10-13T21:04:22;16.30;79.60
81366;DHT22;70822;51.990;22.766;2023-10-13T21:19:28;16.40;79.90
81366;DHT22;70822;51.990;22.766;2023-10-13T21:34:33;16.50;80.00
81366;DHT22;70822;51.990;22.766;2023-10-13T21:49:38;16.50;80.30
81366;DHT22;70822;51.990;22.766;2023-10-13T22:04:42;16.50;80.40
81366;DHT22;70822;51.990;22.766;2023-10-13T22:19:51;16.40;80.40
81366;DHT22;70822;51.990;22.766;2023-10-13T22:34:56;16.60;80.70
81366;DHT22;70822;51.990;22.766;2023-10-13T22:50:01;16.60;80.60
81366;DHT22;70822;51.990;22.766;2023-10-13T23:05:07;16.60;80.50
81366;DHT22;70822;51.990;22.766;2023-10-13T23:20:32;16.60;80.50
81366;DHT22;70822;51.990;22.766;2023-10-13T23:35:38;16.60;80.50
81366;DHT22;70822;51.990;22.766;2023-10-13T23:50:46;16.60;80.60
